createdAt,value
2018-01-28T00:00:35.417Z,5.18
2018-01-28T00:01:35.387Z,5.15
2018-01-28T00:02:35.390Z,5.17
2018-01-28T00:03:35.372Z,5.14
2018-01-28T00:04:35.354Z,5.23
2018-01-28T00:05:35.367Z,5.17
2018-01-28T00:06:35.332Z,5.17
2018-01-28T00:07:35.321Z,5.23
2018-01-28T00:08:35.327Z,5.21
2018-01-28T00:09:35.307Z,5.23
2018-01-28T00:10:35.287Z,5.20
2018-01-28T00:11:35.280Z,5.17
2018-01-28T00:12:35.271Z,5.20
2018-01-28T00:13:35.256Z,5.23
2018-01-28T00:14:35.250Z,5.20
2018-01-28T00:15:35.229Z,5.14
2018-01-28T00:16:35.222Z,5.10
2018-01-28T00:17:35.219Z,5.20
2018-01-28T00:18:35.193Z,5.12
2018-01-28T00:19:35.191Z,5.08
2018-01-28T00:20:35.182Z,5.23
2018-01-28T00:21:35.164Z,5.17
2018-01-28T00:22:35.149Z,5.15
2018-01-28T00:23:35.141Z,5.15
2018-01-28T00:24:35.125Z,5.21
2018-01-28T00:25:35.133Z,5.20
2018-01-28T00:26:35.118Z,5.21
2018-01-28T00:27:35.096Z,5.20
2018-01-28T00:28:35.079Z,5.12
2018-01-28T00:29:35.071Z,5.17
2018-01-28T00:30:35.060Z,5.18
2018-01-28T00:31:35.062Z,5.21
2018-01-28T00:32:35.036Z,5.25
2018-01-28T00:33:35.029Z,5.21
2018-01-28T00:34:35.017Z,5.17
2018-01-28T00:35:35.001Z,5.17
2018-01-28T00:36:35.014Z,5.08
2018-01-28T00:37:34.985Z,5.21
2018-01-28T00:38:34.965Z,5.18
2018-01-28T00:39:34.977Z,5.04
2018-01-28T00:40:34.946Z,5.20
2018-01-28T00:41:34.933Z,5.15
2018-01-28T00:42:34.948Z,5.17
2018-01-28T00:43:34.906Z,5.17
2018-01-28T00:44:34.925Z,5.20
2018-01-28T00:45:34.886Z,5.15
2018-01-28T00:46:34.878Z,5.04
2018-01-28T00:47:34.863Z,5.20
2018-01-28T00:48:34.857Z,5.21
2018-01-28T00:49:34.869Z,5.14
2018-01-28T00:50:34.842Z,5.21
2018-01-28T00:51:34.827Z,5.14
2018-01-28T00:52:34.804Z,5.21
2018-01-28T00:53:34.811Z,5.18
2018-01-28T00:54:34.793Z,5.08
2018-01-28T00:55:34.782Z,5.14
2018-01-28T00:56:34.773Z,5.20
2018-01-28T00:57:34.759Z,5.21
2018-01-28T00:58:34.739Z,5.18
2018-01-28T00:59:34.754Z,5.21
2018-01-28T01:00:34.713Z,5.28
2018-01-28T01:01:34.706Z,5.15
2018-01-28T01:02:34.699Z,5.20
2018-01-28T01:03:34.692Z,5.18
2018-01-28T01:04:34.668Z,5.20
2018-01-28T01:05:34.679Z,5.20
2018-01-28T01:06:34.651Z,5.21
2018-01-28T01:07:34.658Z,5.28
2018-01-28T01:08:34.625Z,5.20
2018-01-28T01:09:34.617Z,5.20
2018-01-28T01:10:34.603Z,5.28
2018-01-28T01:11:34.609Z,5.21
2018-01-28T01:12:34.580Z,5.29
2018-01-28T01:13:34.581Z,5.21
2018-01-28T01:14:34.557Z,5.21
2018-01-28T01:15:34.568Z,5.29
2018-01-28T01:16:34.540Z,5.30
2018-01-28T01:17:34.534Z,5.32
2018-01-28T01:18:34.516Z,5.35
2018-01-28T01:19:34.501Z,5.26
2018-01-28T01:20:34.492Z,5.30
2018-01-28T01:21:34.481Z,5.30
2018-01-28T01:22:34.488Z,5.36
2018-01-28T01:23:34.454Z,5.30
2018-01-28T01:24:34.517Z,5.30
2018-01-28T01:25:34.435Z,5.33
2018-01-28T01:26:34.418Z,5.30
2018-01-28T01:27:34.422Z,5.36
2018-01-28T01:28:34.411Z,5.28
2018-01-28T01:29:34.396Z,5.28
2018-01-28T01:30:34.397Z,5.35
2018-01-28T01:31:34.365Z,5.35
2018-01-28T01:32:34.350Z,5.33
2018-01-28T01:33:34.350Z,5.30
2018-01-28T01:34:34.336Z,5.32
2018-01-28T01:35:34.318Z,5.25
2018-01-28T01:36:34.312Z,5.41
2018-01-28T01:37:34.302Z,5.39
2018-01-28T01:38:34.286Z,5.30
2018-01-28T01:39:34.273Z,5.35
2018-01-28T01:40:34.262Z,5.33
2018-01-28T01:41:34.256Z,5.33
2018-01-28T01:42:34.241Z,5.39
2018-01-28T01:43:34.231Z,5.35
2018-01-28T01:44:34.232Z,5.46
2018-01-28T01:45:34.210Z,5.36
2018-01-28T01:46:34.200Z,5.46
2018-01-28T01:47:34.186Z,5.46
2018-01-28T01:48:34.193Z,5.41
2018-01-28T01:49:34.160Z,5.46
2018-01-28T01:50:34.159Z,5.38
2018-01-28T01:51:34.173Z,5.41
2018-01-28T01:52:34.138Z,5.43
2018-01-28T01:53:34.134Z,5.46
2018-01-28T01:54:34.124Z,5.48
2018-01-28T01:55:34.130Z,5.39
2018-01-28T01:56:34.137Z,5.50
2018-01-28T01:57:34.086Z,5.44
2018-01-28T01:58:34.062Z,5.44
2018-01-28T01:59:34.050Z,5.47
2018-01-28T02:00:34.113Z,5.50
2018-01-28T02:01:34.077Z,5.47
2018-01-28T02:02:34.030Z,5.51
2018-01-28T02:03:34.073Z,5.54
2018-01-28T02:04:34.069Z,5.51
2018-01-28T02:05:33.998Z,5.56
2018-01-28T02:06:34.030Z,5.50
2018-01-28T02:07:34.031Z,5.47
2018-01-28T02:08:34.002Z,5.61
2018-01-28T02:09:33.981Z,5.53
2018-01-28T02:10:33.922Z,5.54
2018-01-28T02:11:33.913Z,5.51
2018-01-28T02:12:33.922Z,5.51
2018-01-28T02:13:33.996Z,5.56
2018-01-28T02:14:33.999Z,5.59
2018-01-28T02:15:33.871Z,5.59
2018-01-28T02:16:33.858Z,5.57
2018-01-28T02:17:33.853Z,5.56
2018-01-28T02:18:33.861Z,5.57
2018-01-28T02:19:33.831Z,5.57
2018-01-28T02:20:33.830Z,5.59
2018-01-28T02:21:33.801Z,5.66
2018-01-28T02:22:33.794Z,5.61
2018-01-28T02:23:33.783Z,5.71
2018-01-28T02:24:33.813Z,5.69
2018-01-28T02:25:33.812Z,5.65
2018-01-28T02:26:33.767Z,5.68
2018-01-28T02:27:33.760Z,5.61
2018-01-28T02:28:33.748Z,5.69
2018-01-28T02:29:33.717Z,5.66
2018-01-28T02:30:33.708Z,5.72
2018-01-28T02:31:33.735Z,5.69
2018-01-28T02:32:33.734Z,5.61
2018-01-28T02:33:33.706Z,5.66
2018-01-28T02:34:33.675Z,5.69
2018-01-28T02:35:33.662Z,5.65
2018-01-28T02:36:33.662Z,5.64
2018-01-28T02:37:33.629Z,5.71
2018-01-28T02:38:33.613Z,5.62
2018-01-28T02:39:33.623Z,5.65
2018-01-28T02:40:33.607Z,5.72
2018-01-28T02:41:33.581Z,5.65
2018-01-28T02:42:33.582Z,5.68
2018-01-28T02:43:33.581Z,5.71
2018-01-28T02:44:33.555Z,5.65
2018-01-28T02:45:33.556Z,5.73
2018-01-28T02:46:33.526Z,5.71
2018-01-28T02:47:33.516Z,5.73
2018-01-28T02:48:33.502Z,5.72
2018-01-28T02:49:33.516Z,5.82
2018-01-28T02:50:33.498Z,5.71
2018-01-28T02:51:33.468Z,5.72
2018-01-28T02:52:33.482Z,5.72
2018-01-28T02:53:33.449Z,5.73
2018-01-28T02:54:33.445Z,5.75
2018-01-28T02:55:33.424Z,5.72
2018-01-28T02:56:33.420Z,5.73
2018-01-28T02:57:33.404Z,5.82
2018-01-28T02:58:33.387Z,5.79
2018-01-28T02:59:33.392Z,5.76
2018-01-28T03:00:33.376Z,5.79
2018-01-28T03:01:33.358Z,5.82
2018-01-28T03:02:33.351Z,5.76
2018-01-28T03:03:33.339Z,5.80
2018-01-28T03:04:33.322Z,5.80
2018-01-28T03:05:33.323Z,5.80
2018-01-28T03:06:33.301Z,5.76
2018-01-28T03:07:33.306Z,5.86
2018-01-28T03:08:33.284Z,5.75
2018-01-28T03:09:33.270Z,5.79
2018-01-28T03:10:33.258Z,5.75
2018-01-28T03:11:33.254Z,5.89
2018-01-28T03:12:33.239Z,5.82
2018-01-28T03:13:33.241Z,5.71
2018-01-28T03:14:33.215Z,5.75
2018-01-28T03:15:33.205Z,5.76
2018-01-28T03:16:33.193Z,5.83
2018-01-28T03:17:33.185Z,5.84
2018-01-28T03:18:33.194Z,5.83
2018-01-28T03:19:33.159Z,5.91
2018-01-28T03:20:33.150Z,5.87
2018-01-28T03:21:33.145Z,5.83
2018-01-28T03:22:33.137Z,5.89
2018-01-28T03:23:33.133Z,5.80
2018-01-28T03:24:33.128Z,5.89
2018-01-28T03:25:33.096Z,5.93
2018-01-28T03:26:33.086Z,5.87
2018-01-28T03:27:33.072Z,5.91
2018-01-28T03:28:33.067Z,5.90
2018-01-28T03:29:33.067Z,5.94
2018-01-28T03:30:33.053Z,5.90
2018-01-28T03:31:33.028Z,5.93
2018-01-28T03:32:33.033Z,5.89
2018-01-28T03:33:33.004Z,5.98
2018-01-28T03:34:32.996Z,5.97
2018-01-28T03:35:33.003Z,5.97
2018-01-28T03:36:32.981Z,5.94
2018-01-28T03:37:32.961Z,5.97
2018-01-28T03:38:32.954Z,5.97
2018-01-28T03:39:32.946Z,5.94
2018-01-28T03:40:32.945Z,5.97
2018-01-28T03:41:32.935Z,6.01
2018-01-28T03:42:32.909Z,6.01
2018-01-28T03:43:32.898Z,5.97
2018-01-28T03:44:32.886Z,5.99
2018-01-28T03:45:32.880Z,5.94
2018-01-28T03:46:32.870Z,5.94
2018-01-28T03:47:32.855Z,5.99
2018-01-28T03:48:32.852Z,5.99
2018-01-28T03:49:32.831Z,6.04
2018-01-28T03:50:32.816Z,5.98
2018-01-28T03:51:32.808Z,6.04
2018-01-28T03:52:32.814Z,6.14
2018-01-28T03:53:32.789Z,6.07
2018-01-28T03:54:32.780Z,6.07
2018-01-28T03:55:32.772Z,6.09
2018-01-28T03:56:32.751Z,6.11
2018-01-28T03:57:32.756Z,6.16
2018-01-28T03:58:32.748Z,6.01
2018-01-28T03:59:32.719Z,6.07
2018-01-28T04:00:32.713Z,6.09
2018-01-28T04:01:32.703Z,6.14
2018-01-28T04:02:32.702Z,6.05
2018-01-28T04:03:32.691Z,6.11
2018-01-28T04:04:32.681Z,6.16
2018-01-28T04:05:32.661Z,6.12
2018-01-28T04:06:32.648Z,6.14
2018-01-28T04:07:32.652Z,6.16
2018-01-28T04:08:32.625Z,6.04
2018-01-28T04:09:32.638Z,6.19
2018-01-28T04:10:32.640Z,6.12
2018-01-28T04:11:32.598Z,6.17
2018-01-28T04:12:32.582Z,6.24
2018-01-28T04:13:32.577Z,6.16
2018-01-28T04:14:32.562Z,6.22
2018-01-28T04:15:32.572Z,6.14
2018-01-28T04:16:32.545Z,6.16
2018-01-28T04:17:32.539Z,6.22
2018-01-28T04:18:32.591Z,6.28
2018-01-28T04:19:32.504Z,6.22
2018-01-28T04:20:32.498Z,6.28
2018-01-28T04:21:32.493Z,6.27
2018-01-28T04:22:32.478Z,6.22
2018-01-28T04:23:32.507Z,6.26
2018-01-28T04:24:32.459Z,6.20
2018-01-28T04:25:32.450Z,6.30
2018-01-28T04:26:32.474Z,6.24
2018-01-28T04:27:32.442Z,6.28
2018-01-28T04:28:32.412Z,6.31
2018-01-28T04:29:32.400Z,6.24
2018-01-28T04:30:32.388Z,6.30
2018-01-28T04:31:32.380Z,6.27
2018-01-28T04:32:32.376Z,6.36
2018-01-28T04:33:32.381Z,6.27
2018-01-28T04:34:32.344Z,6.36
2018-01-28T04:35:32.344Z,6.31
2018-01-28T04:38:05.286Z,6.31
2018-01-28T04:39:05.033Z,6.39
2018-01-28T04:40:59.541Z,6.36
2018-01-28T04:41:59.450Z,6.33
2018-01-28T04:43:54.457Z,6.41
2018-01-28T04:44:54.380Z,6.39
2018-01-28T04:45:54.396Z,6.44
2018-01-28T04:46:54.395Z,6.46
2018-01-28T04:47:54.344Z,6.38
2018-01-28T04:48:54.687Z,6.42
2018-01-28T04:49:54.341Z,6.48
2018-01-28T04:50:54.303Z,6.42
2018-01-28T04:51:54.306Z,6.42
2018-01-28T04:52:54.280Z,6.44
2018-01-28T04:53:54.274Z,6.38
2018-01-28T04:54:54.284Z,6.49
2018-01-28T04:55:54.291Z,6.52
2018-01-28T04:56:54.238Z,6.44
2018-01-28T04:57:54.235Z,6.41
2018-01-28T04:58:54.221Z,6.41
2018-01-28T04:59:54.229Z,6.52
2018-01-28T05:00:54.228Z,6.52
2018-01-28T05:01:54.192Z,6.44
2018-01-28T05:02:54.180Z,6.41
2018-01-28T05:03:54.187Z,6.45
2018-01-28T05:04:54.196Z,6.56
2018-01-28T05:05:54.154Z,6.54
2018-01-28T05:06:54.139Z,6.51
2018-01-28T05:07:54.121Z,6.56
2018-01-28T05:08:54.122Z,6.59
2018-01-28T05:09:54.117Z,6.52
2018-01-28T05:10:54.095Z,6.44
2018-01-28T05:11:54.090Z,6.51
2018-01-28T05:12:54.084Z,6.59
2018-01-28T05:13:54.064Z,6.45
2018-01-28T05:14:54.052Z,6.48
2018-01-28T05:15:54.056Z,6.56
2018-01-28T05:16:54.029Z,6.52
2018-01-28T05:17:54.020Z,6.49
2018-01-28T05:18:54.018Z,6.57
2018-01-28T05:19:53.993Z,6.52
2018-01-28T05:20:53.993Z,6.52
2018-01-28T05:21:53.982Z,6.54
2018-01-28T05:22:53.997Z,6.62
2018-01-28T05:23:53.958Z,6.49
2018-01-28T05:24:53.960Z,6.59
2018-01-28T05:25:53.934Z,6.54
2018-01-28T05:26:53.968Z,6.60
2018-01-28T05:27:53.936Z,6.59
2018-01-28T05:28:53.912Z,6.52
2018-01-28T05:29:53.907Z,6.54
2018-01-28T05:30:53.883Z,6.54
2018-01-28T05:31:53.870Z,6.49
2018-01-28T05:32:53.867Z,6.62
2018-01-28T05:33:53.854Z,6.60
2018-01-28T05:34:53.847Z,6.64
2018-01-28T05:35:53.832Z,6.62
2018-01-28T05:36:53.822Z,6.67
2018-01-28T05:37:53.811Z,6.59
2018-01-28T05:38:53.803Z,6.60
2018-01-28T05:39:53.789Z,6.63
2018-01-28T05:40:53.774Z,6.64
2018-01-28T05:41:53.769Z,6.59
2018-01-28T05:42:53.761Z,6.64
2018-01-28T05:43:53.748Z,6.66
2018-01-28T05:44:53.738Z,6.60
2018-01-28T05:45:53.735Z,6.67
2018-01-28T05:46:53.719Z,6.64
2018-01-28T05:47:53.713Z,6.63
2018-01-28T05:48:53.726Z,6.62
2018-01-28T05:49:53.701Z,6.72
2018-01-28T05:50:53.680Z,6.63
2018-01-28T05:51:53.665Z,6.74
2018-01-28T05:52:53.683Z,6.70
2018-01-28T05:53:53.646Z,6.62
2018-01-28T05:54:53.640Z,6.72
2018-01-28T05:55:53.621Z,6.74
2018-01-28T05:56:53.608Z,6.63
2018-01-28T05:57:53.625Z,6.62
2018-01-28T05:58:53.592Z,6.72
2018-01-28T05:59:53.596Z,6.67
2018-01-28T06:00:53.568Z,6.74
2018-01-28T06:01:53.557Z,6.72
2018-01-28T06:02:53.570Z,6.74
2018-01-28T06:03:53.542Z,6.69
2018-01-28T06:04:53.535Z,6.77
2018-01-28T06:05:53.538Z,6.70
2018-01-28T06:06:53.525Z,6.74
2018-01-28T06:07:53.496Z,6.77
2018-01-28T06:08:53.503Z,6.75
2018-01-28T06:09:53.494Z,6.79
2018-01-28T06:10:53.472Z,6.78
2018-01-28T06:11:53.462Z,6.77
2018-01-28T06:12:53.461Z,6.74
2018-01-28T06:13:53.436Z,6.79
2018-01-28T06:14:53.427Z,6.78
2018-01-28T06:15:53.422Z,6.79
2018-01-28T06:16:53.411Z,6.79
2018-01-28T06:17:53.399Z,6.74
2018-01-28T06:18:53.389Z,6.82
2018-01-28T06:19:53.379Z,6.75
2018-01-28T06:20:53.361Z,6.78
2018-01-28T06:21:53.380Z,6.75
2018-01-28T06:22:53.347Z,6.84
2018-01-28T06:23:53.345Z,6.78
2018-01-28T06:24:53.321Z,6.78
2018-01-28T06:25:53.313Z,6.81
2018-01-28T06:26:53.311Z,6.77
2018-01-28T06:27:53.315Z,6.88
2018-01-28T06:28:53.283Z,6.84
2018-01-28T06:29:53.294Z,6.85
2018-01-28T06:30:53.265Z,6.89
2018-01-28T06:31:53.250Z,6.92
2018-01-28T06:32:53.244Z,6.92
2018-01-28T06:33:53.242Z,6.92
2018-01-28T06:34:53.221Z,6.95
2018-01-28T06:35:53.223Z,6.93
2018-01-28T06:36:53.195Z,6.88
2018-01-28T06:37:53.185Z,6.92
2018-01-28T06:38:53.191Z,6.85
2018-01-28T06:39:53.183Z,6.88
2018-01-28T06:40:53.172Z,6.89
2018-01-28T06:41:53.152Z,6.88
2018-01-28T06:42:53.134Z,6.89
2018-01-28T06:43:53.139Z,6.87
2018-01-28T06:44:53.134Z,6.97
2018-01-28T06:45:53.129Z,6.96
2018-01-28T06:46:53.098Z,6.92
2018-01-28T06:47:53.087Z,6.95
2018-01-28T06:48:53.081Z,6.93
2018-01-28T06:49:53.064Z,6.96
2018-01-28T06:50:53.087Z,6.93
2018-01-28T06:51:53.071Z,6.95
2018-01-28T06:52:53.038Z,6.92
2018-01-28T06:53:53.029Z,6.89
2018-01-28T06:54:53.017Z,6.93
2018-01-28T06:55:53.001Z,6.92
2018-01-28T06:56:53.009Z,6.95
2018-01-28T06:57:52.996Z,6.97
2018-01-28T06:58:52.973Z,7.02
2018-01-28T06:59:52.965Z,6.95
2018-01-28T07:00:52.955Z,6.95
2018-01-28T07:01:52.945Z,6.97
2018-01-28T07:02:52.937Z,7.06
2018-01-28T07:03:52.928Z,7.07
2018-01-28T07:04:52.915Z,7.07
2018-01-28T07:05:52.946Z,7.06
2018-01-28T07:06:52.895Z,7.00
2018-01-28T07:07:52.877Z,7.11
2018-01-28T07:08:52.903Z,7.05
2018-01-28T07:09:52.880Z,7.06
2018-01-28T07:10:52.860Z,7.07
2018-01-28T07:11:52.839Z,7.10
2018-01-28T07:12:52.829Z,7.06
2018-01-28T07:13:52.832Z,7.11
2018-01-28T07:14:52.822Z,7.13
2018-01-28T07:15:52.823Z,7.17
2018-01-28T07:16:52.811Z,7.20
2018-01-28T07:17:52.783Z,7.07
2018-01-28T07:18:52.770Z,7.07
2018-01-28T07:19:52.756Z,7.10
2018-01-28T07:20:52.750Z,7.21
2018-01-28T07:21:52.754Z,7.18
2018-01-28T07:22:52.738Z,7.21
2018-01-28T07:23:52.724Z,7.23
2018-01-28T07:24:52.709Z,7.17
2018-01-28T07:25:52.702Z,7.29
2018-01-28T07:26:52.689Z,7.24
2018-01-28T07:27:52.681Z,7.23
2018-01-28T07:28:52.694Z,7.17
2018-01-28T07:29:52.664Z,7.21
2018-01-28T07:30:52.649Z,7.24
2018-01-28T07:31:52.638Z,7.18
2018-01-28T07:32:52.624Z,7.20
2018-01-28T07:33:52.621Z,7.15
2018-01-28T07:34:52.614Z,7.28
2018-01-28T07:35:52.601Z,7.20
2018-01-28T07:36:52.597Z,7.21
2018-01-28T07:37:52.576Z,7.23
2018-01-28T07:38:52.566Z,7.36
2018-01-28T07:39:52.563Z,7.39
2018-01-28T07:40:52.552Z,7.38
2018-01-28T07:41:52.540Z,7.32
2018-01-28T07:42:52.532Z,7.35
2018-01-28T07:43:52.516Z,7.33
2018-01-28T07:44:52.509Z,7.36
2018-01-28T07:45:52.499Z,7.45
2018-01-28T07:46:52.498Z,7.36
2018-01-28T07:47:52.477Z,7.39
2018-01-28T07:48:52.464Z,7.42
2018-01-28T07:49:52.458Z,7.40
2018-01-28T07:50:52.450Z,7.40
2018-01-28T07:51:52.438Z,7.36
2018-01-28T07:52:52.432Z,7.31
2018-01-28T07:53:52.416Z,7.42
2018-01-28T07:54:52.408Z,7.33
2018-01-28T07:55:52.398Z,7.33
2018-01-28T07:56:52.386Z,7.35
2018-01-28T07:57:52.373Z,7.40
2018-01-28T07:58:52.372Z,7.42
2018-01-28T07:59:52.369Z,7.42
2018-01-28T08:00:52.350Z,7.47
2018-01-28T08:01:52.351Z,7.42
2018-01-28T08:02:52.330Z,7.42
2018-01-28T08:03:52.317Z,7.43
2018-01-28T08:04:52.316Z,7.42
2018-01-28T08:05:52.299Z,7.56
2018-01-28T08:06:52.288Z,7.50
2018-01-28T08:07:52.275Z,7.53
2018-01-28T08:08:52.271Z,7.53
2018-01-28T08:09:52.254Z,7.57
2018-01-28T08:10:52.248Z,7.56
2018-01-28T08:11:52.256Z,7.51
2018-01-28T08:12:52.227Z,7.48
2018-01-28T08:13:52.257Z,7.60
2018-01-28T08:14:52.230Z,7.58
2018-01-28T08:15:52.194Z,7.56
2018-01-28T08:16:52.208Z,7.51
2018-01-28T08:17:52.187Z,7.61
2018-01-28T08:18:52.170Z,7.53
2018-01-28T08:19:52.156Z,7.58
2018-01-28T08:20:52.145Z,7.54
2018-01-28T08:21:52.134Z,7.56
2018-01-28T08:22:52.135Z,7.58
2018-01-28T08:23:52.127Z,7.50
2018-01-28T08:24:52.127Z,7.57
2018-01-28T08:25:52.239Z,7.56
2018-01-28T08:26:52.091Z,7.56
2018-01-28T08:27:52.086Z,7.57
2018-01-28T08:28:52.072Z,7.53
2018-01-28T08:29:52.083Z,7.60
2018-01-28T08:30:52.090Z,7.60
2018-01-28T08:31:52.059Z,7.66
2018-01-28T08:32:52.036Z,7.63
2018-01-28T08:33:52.030Z,7.70
2018-01-28T08:34:52.011Z,7.70
2018-01-28T08:35:52.016Z,7.73
2018-01-28T08:36:52.012Z,7.63
2018-01-28T08:37:51.983Z,7.67
2018-01-28T08:38:51.978Z,7.70
2018-01-28T08:39:51.971Z,7.69
2018-01-28T08:40:51.954Z,7.73
2018-01-28T08:41:51.942Z,7.63
2018-01-28T08:42:51.941Z,7.72
2018-01-28T08:43:51.944Z,7.77
2018-01-28T08:44:51.910Z,7.75
2018-01-28T08:45:51.907Z,7.72
2018-01-28T08:46:51.890Z,7.75
2018-01-28T08:47:51.889Z,7.72
2018-01-28T08:48:51.928Z,7.70
2018-01-28T08:49:51.878Z,7.75
2018-01-28T08:50:51.853Z,7.75
2018-01-28T08:51:51.848Z,7.76
2018-01-28T08:52:51.829Z,7.73
2018-01-28T08:53:51.825Z,7.75
2018-01-28T08:54:51.836Z,7.82
2018-01-28T08:55:51.833Z,7.73
2018-01-28T08:56:51.801Z,7.72
2018-01-28T08:57:51.787Z,7.80
2018-01-28T08:58:51.778Z,7.80
2018-01-28T08:59:51.785Z,7.83
2018-01-28T09:00:51.777Z,7.88
2018-01-28T09:01:51.747Z,7.90
2018-01-28T09:02:51.752Z,7.88
2018-01-28T09:03:51.729Z,7.91
2018-01-28T09:04:51.720Z,7.91
2018-01-28T09:05:51.709Z,7.83
2018-01-28T09:06:51.698Z,7.90
2018-01-28T09:07:51.717Z,7.85
2018-01-28T09:08:51.687Z,7.80
2018-01-28T09:09:51.720Z,7.85
2018-01-28T09:10:51.664Z,7.88
2018-01-28T09:11:51.648Z,7.82
2018-01-28T09:12:51.643Z,7.83
2018-01-28T09:13:51.653Z,7.80
2018-01-28T09:14:51.620Z,7.87
2018-01-28T09:15:51.611Z,7.94
2018-01-28T09:16:51.600Z,7.95
2018-01-28T09:17:51.592Z,7.90
2018-01-28T09:18:51.591Z,7.90
2018-01-28T09:19:51.572Z,7.91
2018-01-28T09:20:51.598Z,7.98
2018-01-28T09:21:51.573Z,7.98
2018-01-28T09:22:51.547Z,7.94
2018-01-28T09:23:51.535Z,8.00
2018-01-28T09:24:51.524Z,7.97
2018-01-28T09:25:51.532Z,7.93
2018-01-28T09:26:51.561Z,7.90
2018-01-28T09:27:51.499Z,7.95
2018-01-28T09:28:51.487Z,7.94
2018-01-28T09:29:51.477Z,7.93
2018-01-28T09:30:51.476Z,8.08
2018-01-28T09:31:51.459Z,7.98
2018-01-28T09:32:51.460Z,8.05
2018-01-28T09:33:51.438Z,8.06
2018-01-28T09:34:51.433Z,8.12
2018-01-28T09:35:51.421Z,8.08
2018-01-28T09:36:51.414Z,8.03
2018-01-28T09:37:51.419Z,8.19
2018-01-28T09:38:51.399Z,8.12
2018-01-28T09:39:51.385Z,8.10
2018-01-28T09:40:51.393Z,8.09
2018-01-28T09:41:51.420Z,8.15
2018-01-28T09:42:51.381Z,8.13
2018-01-28T09:43:51.367Z,8.15
2018-01-28T09:44:51.376Z,8.12
2018-01-28T09:45:51.325Z,8.18
2018-01-28T09:46:51.326Z,8.10
2018-01-28T09:47:51.303Z,8.09
2018-01-28T09:48:51.317Z,8.19
2018-01-28T09:49:51.305Z,8.12
2018-01-28T09:50:51.289Z,8.16
2018-01-28T09:51:51.316Z,8.20
2018-01-28T09:52:51.268Z,8.24
2018-01-28T09:53:51.273Z,8.28
2018-01-28T09:54:51.273Z,8.27
2018-01-28T09:55:51.305Z,8.28
2018-01-28T09:56:51.318Z,8.34
2018-01-28T09:57:51.287Z,8.33
2018-01-28T09:58:51.254Z,8.38
2018-01-28T09:59:51.225Z,8.37
2018-01-28T10:00:51.181Z,8.37
2018-01-28T10:01:51.266Z,8.45
2018-01-28T10:02:51.180Z,8.38
2018-01-28T10:03:51.251Z,8.44
2018-01-28T10:04:51.142Z,8.37
2018-01-28T10:05:51.135Z,8.36
2018-01-28T10:06:51.127Z,8.44
2018-01-28T10:07:51.141Z,8.44
2018-01-28T10:08:51.140Z,8.42
2018-01-28T10:09:51.107Z,8.36
2018-01-28T10:10:51.121Z,8.41
2018-01-28T10:11:51.089Z,8.48
2018-01-28T10:12:51.083Z,8.46
2018-01-28T10:13:51.100Z,8.48
2018-01-28T10:14:51.106Z,8.45
2018-01-28T10:15:51.061Z,8.46
2018-01-28T10:16:51.049Z,8.45
2018-01-28T10:17:51.096Z,8.61
2018-01-28T10:18:51.023Z,8.53
2018-01-28T10:19:51.008Z,8.51
2018-01-28T10:20:51.026Z,8.55
2018-01-28T10:21:50.994Z,8.52
2018-01-28T10:22:50.981Z,8.53
2018-01-28T10:23:50.970Z,8.51
2018-01-28T10:24:50.962Z,8.49
2018-01-28T10:25:50.949Z,8.51
2018-01-28T10:26:50.939Z,8.56
2018-01-28T10:27:50.932Z,8.63
2018-01-28T10:28:50.964Z,8.52
2018-01-28T10:29:50.923Z,8.66
2018-01-28T10:30:50.931Z,8.60
2018-01-28T10:31:50.927Z,8.60
2018-01-28T10:32:50.895Z,8.70
2018-01-28T10:33:50.942Z,8.66
2018-01-28T10:34:50.894Z,8.66
2018-01-28T10:35:50.861Z,8.60
2018-01-28T10:36:50.844Z,8.61
2018-01-28T10:37:50.841Z,8.61
2018-01-28T10:38:50.830Z,8.64
2018-01-28T10:39:50.823Z,8.61
2018-01-28T10:40:50.808Z,8.71
2018-01-28T10:41:50.815Z,8.67
2018-01-28T10:42:50.793Z,8.70
2018-01-28T10:43:50.789Z,8.66
2018-01-28T10:44:50.773Z,8.78
2018-01-28T10:45:50.770Z,8.70
2018-01-28T10:46:50.803Z,8.66
2018-01-28T10:47:50.746Z,8.64
2018-01-28T10:48:50.753Z,8.66
2018-01-28T10:49:50.731Z,8.64
2018-01-28T10:50:50.729Z,8.66
2018-01-28T10:51:50.724Z,8.67
2018-01-28T10:52:50.786Z,8.70
2018-01-28T10:53:50.705Z,8.76
2018-01-28T10:54:50.756Z,8.82
2018-01-28T10:55:50.728Z,8.85
2018-01-28T10:56:50.668Z,8.85
2018-01-28T10:57:50.728Z,8.78
2018-01-28T10:58:50.644Z,8.84
2018-01-28T10:59:50.635Z,8.89
2018-01-28T11:00:50.631Z,8.88
2018-01-28T11:01:50.622Z,8.85
2018-01-28T11:02:50.636Z,8.87
2018-01-28T11:03:50.597Z,8.79
2018-01-28T11:04:50.605Z,8.91
2018-01-28T11:05:50.579Z,8.88
2018-01-28T11:06:50.569Z,8.92
2018-01-28T11:07:50.644Z,8.88
2018-01-28T11:08:50.552Z,8.91
2018-01-28T11:09:50.549Z,8.89
2018-01-28T11:10:50.538Z,8.84
2018-01-28T11:11:50.525Z,8.92
2018-01-28T11:12:50.513Z,8.89
2018-01-28T11:13:50.537Z,8.94
2018-01-28T11:14:50.502Z,9.03
2018-01-28T11:15:50.508Z,9.04
2018-01-28T11:16:50.477Z,9.02
2018-01-28T11:17:50.520Z,9.02
2018-01-28T11:18:50.459Z,9.14
2018-01-28T11:19:50.453Z,9.10
2018-01-28T11:20:50.446Z,9.13
2018-01-28T11:21:50.442Z,9.16
2018-01-28T11:22:50.436Z,9.16
2018-01-28T11:23:50.459Z,9.13
2018-01-28T11:24:50.432Z,9.14
2018-01-28T11:25:50.405Z,9.14
2018-01-28T11:26:50.391Z,9.14
2018-01-28T11:27:50.395Z,9.10
2018-01-28T11:28:50.401Z,9.21
2018-01-28T11:29:50.362Z,9.22
2018-01-28T11:30:50.350Z,9.11
2018-01-28T11:31:50.358Z,9.19
2018-01-28T11:32:50.381Z,9.26
2018-01-28T11:33:50.337Z,9.25
2018-01-28T11:34:50.327Z,9.19
2018-01-28T11:35:50.307Z,9.19
2018-01-28T11:36:50.297Z,9.21
2018-01-28T11:37:50.288Z,9.28
2018-01-28T11:38:50.284Z,9.22
2018-01-28T11:39:50.284Z,9.26
2018-01-28T11:40:50.282Z,9.31
2018-01-28T11:41:50.278Z,9.36
2018-01-28T11:42:50.259Z,9.31
2018-01-28T11:43:50.259Z,9.31
2018-01-28T11:44:50.333Z,9.26
2018-01-28T11:45:50.242Z,9.28
2018-01-28T11:46:50.220Z,9.36
2018-01-28T11:47:50.205Z,9.32
2018-01-28T11:48:50.221Z,9.40
2018-01-28T11:49:50.202Z,9.34
2018-01-28T11:50:50.179Z,9.39
2018-01-28T11:51:50.184Z,9.34
2018-01-28T11:52:50.176Z,9.37
2018-01-28T11:53:50.175Z,9.46
2018-01-28T11:54:50.146Z,9.41
2018-01-28T11:55:50.174Z,9.43
2018-01-28T11:56:50.124Z,9.36
2018-01-28T11:57:50.310Z,9.37
2018-01-28T11:58:50.108Z,9.46
2018-01-28T11:59:50.145Z,9.40
2018-01-28T12:00:50.136Z,9.40
2018-01-28T12:01:50.081Z,9.41
2018-01-28T12:02:50.074Z,9.32
2018-01-28T12:03:50.078Z,9.44
2018-01-28T12:04:50.081Z,9.43
2018-01-28T12:05:50.058Z,9.40
2018-01-28T12:06:50.055Z,9.44
2018-01-28T12:07:50.032Z,9.43
2018-01-28T12:08:50.024Z,9.50
2018-01-28T12:09:50.022Z,9.44
2018-01-28T12:10:50.001Z,9.40
2018-01-28T12:11:49.998Z,9.37
2018-01-28T12:12:49.987Z,9.37
2018-01-28T12:13:49.979Z,9.43
2018-01-28T12:14:49.972Z,9.50
2018-01-28T12:15:49.957Z,9.41
2018-01-28T12:16:49.959Z,9.48
2018-01-28T12:17:49.945Z,9.56
2018-01-28T12:18:49.935Z,9.62
2018-01-28T12:19:49.941Z,9.56
2018-01-28T12:20:51.054Z,9.59
2018-01-28T12:21:49.945Z,9.56
2018-01-28T12:22:50.113Z,9.56
2018-01-28T12:23:49.950Z,9.61
2018-01-28T12:24:49.885Z,9.56
2018-01-28T12:25:50.426Z,9.56
2018-01-28T12:26:49.871Z,9.62
2018-01-28T12:27:49.876Z,9.69
2018-01-28T12:28:49.849Z,9.66
2018-01-28T12:29:49.842Z,9.64
2018-01-28T12:30:49.829Z,9.69
2018-01-28T12:31:49.832Z,9.65
2018-01-28T12:32:49.812Z,9.68
2018-01-28T12:33:49.805Z,9.73
2018-01-28T12:34:49.802Z,9.66
2018-01-28T12:35:49.790Z,9.65
2018-01-28T12:36:49.789Z,9.74
2018-01-28T12:37:49.773Z,9.64
2018-01-28T12:38:49.772Z,9.73
2018-01-28T12:39:49.753Z,9.68
2018-01-28T12:40:49.750Z,9.65
2018-01-28T12:41:49.752Z,9.68
2018-01-28T12:42:49.731Z,9.68
2018-01-28T12:43:49.744Z,9.65
2018-01-28T12:44:49.726Z,9.65
2018-01-28T12:45:49.714Z,9.64
2018-01-28T12:46:49.694Z,9.65
2018-01-28T12:47:54.542Z,9.72
2018-01-28T12:48:49.687Z,9.73
2018-01-28T12:49:49.669Z,9.76
2018-01-28T12:50:49.677Z,9.68
2018-01-28T12:51:49.662Z,9.74
2018-01-28T12:52:49.666Z,9.76
2018-01-28T12:53:49.653Z,9.79
2018-01-28T12:54:49.655Z,9.79
2018-01-28T12:55:49.620Z,9.80
2018-01-28T12:56:49.628Z,9.80
2018-01-28T12:57:49.604Z,9.84
2018-01-28T12:58:49.603Z,9.82
2018-01-28T12:59:49.583Z,9.82
2018-01-28T13:00:49.576Z,9.87
2018-01-28T13:01:49.581Z,9.83
2018-01-28T13:02:49.581Z,9.89
2018-01-28T13:03:49.606Z,9.91
2018-01-28T13:04:49.562Z,9.87
2018-01-28T13:05:49.537Z,9.92
2018-01-28T13:06:49.525Z,9.99
2018-01-28T13:07:49.536Z,9.99
2018-01-28T13:08:49.512Z,9.99
2018-01-28T13:09:49.504Z,10.07
2018-01-28T13:10:49.497Z,10.13
2018-01-28T13:11:49.486Z,10.13
2018-01-28T13:12:49.498Z,10.01
2018-01-28T13:13:49.480Z,10.05
2018-01-28T13:14:49.486Z,10.07
2018-01-28T13:15:49.468Z,10.02
2018-01-28T13:16:49.449Z,10.10
2018-01-28T13:17:49.437Z,10.10
2018-01-28T13:18:49.428Z,9.98
2018-01-28T13:19:49.424Z,9.98
2018-01-28T13:20:49.414Z,9.99
2018-01-28T13:21:49.408Z,9.94